Time;durP1;ratioP1;P1;durP2;ratioP2;P2;SDS_P1;SDS_P2;PMS_P1;PMS_P2;Temp;Humidity;BMP_temperature;BMP_pressure;BME280_temperature;BME280_humidity;BME280_pressure;Samples;Min_cycle;Max_cycle;Signal;HPM_P1;HPM_P2
2023/08/02 00:00:41;;;;;;;2.58;0.70;;;16.80;91.60;;;;;;4893805;29;20040;-82
2023/08/02 00:03:47;;;;;;;2.22;0.50;;;16.70;91.60;;;;;;4862115;29;20044;-82
2023/08/02 00:06:28;;;;;;;1.10;0.50;;;16.70;91.70;;;;;;4908368;29;20055;-83
2023/08/02 00:08:55;;;;;;;2.25;0.60;;;16.60;91.80;;;;;;4915039;29;20048;-83
2023/08/02 00:11:22;;;;;;;1.10;0.60;;;16.60;92.20;;;;;;4892247;29;20048;-83
2023/08/02 00:13:50;;;;;;;2.88;0.98;;;16.50;92.30;;;;;;4904126;29;20563;-82
2023/08/02 00:16:17;;;;;;;2.38;0.70;;;16.50;92.10;;;;;;4867793;29;20501;-82
2023/08/02 00:18:44;;;;;;;1.80;0.52;;;16.40;92.20;;;;;;4880668;29;20059;-82
2023/08/02 00:21:11;;;;;;;1.65;0.50;;;16.30;92.30;;;;;;4894722;29;20044;-82
2023/08/02 00:23:38;;;;;;;1.70;0.70;;;16.20;92.40;;;;;;4908013;29;20060;-83
2023/08/02 00:26:05;;;;;;;1.17;0.50;;;16.20;92.50;;;;;;4881325;29;20432;-82
2023/08/02 00:28:35;;;;;;;2.55;0.50;;;16.10;92.50;;;;;;4869175;29;20092;-83
2023/08/02 00:31:03;;;;;;;2.28;0.60;;;16.00;92.60;;;;;;4852371;29;20145;-83
2023/08/02 00:33:30;;;;;;;2.92;0.65;;;16.00;92.70;;;;;;4870870;29;20449;-83
2023/08/02 00:35:57;;;;;;;2.10;0.45;;;15.90;92.70;;;;;;4883705;29;20052;-83
2023/08/02 00:38:24;;;;;;;3.95;0.70;;;15.90;92.80;;;;;;4875629;29;20052;-82
2023/08/02 00:40:51;;;;;;;1.67;0.50;;;15.80;92.90;;;;;;4870164;29;21493;-82
2023/08/02 00:43:19;;;;;;;2.60;0.60;;;15.80;92.90;;;;;;4873313;29;20056;-82
2023/08/02 00:45:46;;;;;;;3.38;0.70;;;15.70;92.90;;;;;;4889065;29;20051;-82
2023/08/02 00:48:13;;;;;;;3.78;0.47;;;15.80;93.00;;;;;;4875826;29;20064;-82
2023/08/02 00:50:40;;;;;;;1.98;0.50;;;15.70;93.00;;;;;;4864956;29;20043;-83
2023/08/02 00:53:10;;;;;;;3.63;0.60;;;15.70;93.10;;;;;;4871586;29;20079;-83
2023/08/02 00:55:39;;;;;;;2.40;1.05;;;15.70;93.20;;;;;;4884575;29;20052;-83
2023/08/02 00:58:06;;;;;;;1.08;0.50;;;15.60;93.20;;;;;;4890454;29;20040;-83
2023/08/02 01:00:35;;;;;;;4.07;0.75;;;15.60;93.30;;;;;;4888865;29;20063;-83
2023/08/02 01:03:02;;;;;;;2.20;0.60;;;15.60;93.30;;;;;;4893337;29;20119;-83
2023/08/02 01:05:37;;;;;;;5.28;0.80;;;15.50;93.40;;;;;;4891286;29;20037;-83
2023/08/02 01:08:08;;;;;;;2.25;0.68;;;15.50;93.40;;;;;;4891288;29;20048;-83
2023/08/02 01:10:49;;;;;;;2.10;0.80;;;15.50;93.40;;;;;;4889297;29;20139;-83
2023/08/02 01:13:18;;;;;;;3.47;0.52;;;15.60;93.40;;;;;;4890717;29;20063;-83
2023/08/02 01:15:47;;;;;;;2.28;0.80;;;15.60;93.40;;;;;;4898849;29;20052;-84
2023/08/02 01:18:14;;;;;;;2.63;0.95;;;15.60;93.40;;;;;;4885341;29;21256;-83
2023/08/02 01:20:41;;;;;;;5.55;0.80;;;15.70;93.60;;;;;;4875045;29;20481;-84
2023/08/02 01:23:46;;;;;;;1.80;0.63;;;15.70;93.40;;;;;;4880498;29;20045;-84
2023/08/02 01:26:14;;;;;;;3.15;0.93;;;15.70;93.30;;;;;;4896720;29;20079;-82
2023/08/02 01:28:45;;;;;;;2.70;0.70;;;15.60;93.40;;;;;;4868277;29;20044;-84
2023/08/02 01:31:14;;;;;;;4.10;0.80;;;15.60;93.50;;;;;;4879328;29;20052;-83
2023/08/02 01:33:53;;;;;;;1.48;0.55;;;15.60;93.60;;;;;;4876534;29;20072;-84
2023/08/02 01:36:20;;;;;;;2.50;0.60;;;15.60;93.60;;;;;;4889319;29;20067;-83
2023/08/02 01:38:47;;;;;;;2.67;0.95;;;15.60;93.70;;;;;;4871233;29;20044;-83
2023/08/02 01:41:14;;;;;;;7.85;0.82;;;15.60;93.60;;;;;;4875768;29;20064;-83
2023/08/02 01:43:41;;;;;;;3.72;0.60;;;15.60;93.60;;;;;;4888999;29;20071;-84
2023/08/02 01:46:09;;;;;;;3.65;1.10;;;15.70;93.60;;;;;;4857664;29;20055;-83
2023/08/02 01:48:36;;;;;;;3.55;0.52;;;15.60;93.60;;;;;;4888849;29;20056;-83
2023/08/02 01:51:03;;;;;;;4.07;0.60;;;15.60;93.70;;;;;;4882216;29;20406;-83
2023/08/02 01:53:30;;;;;;;3.03;0.80;;;15.60;93.80;;;;;;4888981;29;20088;-83
2023/08/02 01:55:58;;;;;;;2.03;0.73;;;15.50;93.80;;;;;;4870482;29;20504;-83
2023/08/02 01:58:25;;;;;;;2.72;0.70;;;15.50;93.90;;;;;;4871589;29;20453;-83
2023/08/02 02:00:52;;;;;;;2.00;0.90;;;15.50;94.00;;;;;;4866060;29;20048;-83
2023/08/02 02:03:19;;;;;;;2.58;0.80;;;15.50;94.10;;;;;;4859415;29;20050;-83
2023/08/02 02:05:53;;;;;;;2.83;0.60;;;15.40;94.10;;;;;;4858441;29;20072;-83
2023/08/02 02:08:22;;;;;;;2.10;0.70;;;15.50;94.10;;;;;;4891379;29;20044;-83
2023/08/02 02:10:54;;;;;;;1.45;0.40;;;15.50;94.10;;;;;;4873424;29;20412;-83
2023/08/02 02:13:58;;;;;;;2.22;0.63;;;15.50;94.10;;;;;;4850605;29;20051;-83
2023/08/02 02:16:25;;;;;;;3.03;0.70;;;15.60;94.00;;;;;;4878171;29;20071;-83
2023/08/02 02:18:53;;;;;;;4.30;0.63;;;15.60;94.00;;;;;;4839368;29;20052;-84
2023/08/02 02:21:20;;;;;;;1.50;0.57;;;15.70;94.00;;;;;;4846479;29;20135;-83
2023/08/02 02:23:47;;;;;;;3.10;0.70;;;15.70;93.90;;;;;;4835087;29;20059;-83
2023/08/02 02:26:14;;;;;;;3.13;0.80;;;15.70;93.90;;;;;;4875520;29;20048;-83
2023/08/02 02:28:41;;;;;;;2.45;0.80;;;15.70;93.90;;;;;;4876056;29;20037;-83
2023/08/02 02:31:08;;;;;;;2.10;0.63;;;15.70;93.90;;;;;;4852074;29;20062;-83
2023/08/02 02:33:35;;;;;;;2.20;0.75;;;15.70;93.90;;;;;;4873121;29;20047;-83
2023/08/02 02:36:06;;;;;;;2.78;0.65;;;15.70;94.00;;;;;;4856238;29;20128;-84
2023/08/02 02:38:54;;;;;;;4.22;0.57;;;15.70;94.00;;;;;;4859881;29;20933;-83
2023/08/02 02:41:21;;;;;;;2.13;0.52;;;15.70;94.00;;;;;;4858812;29;20420;-83
2023/08/02 02:43:48;;;;;;;1.63;0.43;;;15.70;94.10;;;;;;4862860;29;20045;-83
2023/08/02 02:46:15;;;;;;;2.40;0.57;;;15.70;94.10;;;;;;4805043;29;20056;-83
2023/08/02 02:48:43;;;;;;;1.67;0.60;;;15.70;94.20;;;;;;4837919;29;20527;-83
2023/08/02 02:51:11;;;;;;;2.35;0.60;;;15.60;94.20;;;;;;4855880;29;20051;-83
2023/08/02 02:53:38;;;;;;;1.67;0.50;;;15.70;94.20;;;;;;4880384;29;20067;-82
2023/08/02 02:56:05;;;;;;;1.85;0.68;;;15.60;94.20;;;;;;4876699;29;21269;-82
2023/08/02 02:58:32;;;;;;;1.50;0.50;;;15.60;94.20;;;;;;4854299;29;20044;-82
2023/08/02 03:00:59;;;;;;;1.23;0.50;;;15.70;94.30;;;;;;4877989;29;20112;-82
2023/08/02 03:03:27;;;;;;;2.47;0.60;;;15.70;94.30;;;;;;4874934;29;20052;-82
2023/08/02 03:05:54;;;;;;;2.55;0.70;;;15.70;94.30;;;;;;4874440;29;20144;-82
2023/08/02 03:08:21;;;;;;;4.25;0.70;;;15.70;94.30;;;;;;4861250;29;20048;-82
2023/08/02 03:10:48;;;;;;;3.05;0.70;;;15.70;94.30;;;;;;4843741;29;20055;-82
2023/08/02 03:13:15;;;;;;;1.75;0.68;;;15.70;94.30;;;;;;4868130;29;20449;-82
2023/08/02 03:15:42;;;;;;;1.38;0.45;;;15.70;94.30;;;;;;4851422;29;20416;-82
2023/08/02 03:18:10;;;;;;;1.63;0.43;;;15.70;94.30;;;;;;4869028;29;20059;-82
2023/08/02 03:20:56;;;;;;;2.67;0.68;;;15.70;94.30;;;;;;4853089;29;20044;-82
2023/08/02 03:23:23;;;;;;;2.90;0.50;;;15.80;94.30;;;;;;4881371;29;20052;-82
2023/08/02 03:25:52;;;;;;;3.15;0.50;;;15.70;94.30;;;;;;4831190;29;20045;-82
2023/08/02 03:28:19;;;;;;;1.80;0.40;;;15.70;94.30;;;;;;4835416;29;20044;-82
2023/08/02 03:30:47;;;;;;;2.25;0.40;;;15.70;94.40;;;;;;4858111;29;20048;-82
2023/08/02 03:33:14;;;;;;;2.15;0.47;;;15.70;94.50;;;;;;4877151;29;20508;-82
2023/08/02 03:35:41;;;;;;;2.50;0.80;;;15.60;94.50;;;;;;4852372;29;20485;-82
2023/08/02 03:38:29;;;;;;;1.23;0.43;;;15.60;94.50;;;;;;4858054;29;20734;-83
2023/08/02 03:40:57;;;;;;;1.60;0.50;;;15.60;94.60;;;;;;4860734;29;20055;-82
2023/08/02 03:43:24;;;;;;;1.40;0.50;;;15.60;94.70;;;;;;4864380;29;20044;-83
2023/08/02 03:45:51;;;;;;;2.15;0.57;;;15.60;94.70;;;;;;4859530;29;20048;-82
2023/08/02 03:48:19;;;;;;;1.83;0.60;;;15.60;94.70;;;;;;4865214;29;20101;-82
2023/08/02 03:51:05;;;;;;;2.30;0.50;;;15.60;94.70;;;;;;4857449;29;20389;-82
2023/08/02 03:53:32;;;;;;;1.20;0.40;;;15.70;94.60;;;;;;4866026;29;20051;-82
2023/08/02 03:55:59;;;;;;;1.83;0.65;;;15.70;94.60;;;;;;4883071;29;20155;-82
2023/08/02 03:58:29;;;;;;;1.50;0.50;;;15.80;94.60;;;;;;4858940;29;20068;-82
2023/08/02 04:00:56;;;;;;;1.92;0.50;;;15.80;94.50;;;;;;4865942;29;20063;-81
2023/08/02 04:03:23;;;;;;;2.20;0.70;;;15.90;94.60;;;;;;4878473;29;20063;-82
2023/08/02 04:05:50;;;;;;;1.45;0.60;;;15.80;94.50;;;;;;4856748;29;20048;-82
2023/08/02 04:08:17;;;;;;;2.67;0.70;;;15.90;94.50;;;;;;4838098;29;20045;-82
2023/08/02 04:10:44;;;;;;;4.75;0.85;;;15.90;94.50;;;;;;4893650;29;20115;-82
2023/08/02 04:13:11;;;;;;;3.10;1.17;;;15.90;94.60;;;;;;4885617;29;20051;-82
2023/08/02 04:15:38;;;;;;;4.50;0.90;;;15.90;94.60;;;;;;4904365;29;20044;-82
2023/08/02 04:18:05;;;;;;;2.65;0.77;;;15.90;94.50;;;;;;4870559;29;20044;-82
2023/08/02 04:20:37;;;;;;;2.55;0.70;;;16.00;94.60;;;;;;4901963;29;20040;-82
2023/08/02 04:23:04;;;;;;;2.22;0.90;;;16.00;94.50;;;;;;4876401;29;20055;-82
2023/08/02 04:25:31;;;;;;;3.42;1.10;;;16.00;94.50;;;;;;4853564;29;20045;-82
2023/08/02 04:27:58;;;;;;;3.53;0.90;;;16.10;94.50;;;;;;4889878;29;20048;-82
2023/08/02 04:30:25;;;;;;;2.00;0.80;;;16.10;94.50;;;;;;4859682;29;20463;-83
2023/08/02 04:32:53;;;;;;;3.13;0.80;;;16.10;94.50;;;;;;4858830;29;20048;-82
2023/08/02 04:35:21;;;;;;;2.13;0.63;;;16.10;94.40;;;;;;4885479;29;21414;-82
2023/08/02 04:37:48;;;;;;;3.47;0.93;;;16.20;94.50;;;;;;4903533;29;20044;-82
2023/08/02 04:40:15;;;;;;;2.38;1.02;;;16.20;94.50;;;;;;4878641;29;20056;-82
2023/08/02 04:42:42;;;;;;;2.35;0.80;;;16.30;94.50;;;;;;4906413;29;20049;-83
2023/08/02 04:45:10;;;;;;;3.97;1.10;;;16.30;94.40;;;;;;4875631;29;20413;-82
2023/08/02 04:47:40;;;;;;;2.97;0.65;;;16.40;94.40;;;;;;4893383;29;20047;-82
2023/08/02 04:50:07;;;;;;;2.30;0.77;;;16.40;94.40;;;;;;4876585;29;20079;-82
2023/08/02 04:52:34;;;;;;;2.08;0.70;;;16.50;94.40;;;;;;4906553;29;20084;-82
2023/08/02 04:55:04;;;;;;;2.65;0.82;;;16.50;94.40;;;;;;4883806;29;20138;-82
2023/08/02 04:57:31;;;;;;;3.05;0.80;;;16.50;94.40;;;;;;4879587;29;20547;-82
2023/08/02 04:59:58;;;;;;;1.83;0.82;;;16.60;94.40;;;;;;4892033;29;20075;-82
2023/08/02 05:02:32;;;;;;;2.80;0.70;;;16.50;94.30;;;;;;4881163;29;20095;-82
2023/08/02 05:05:02;;;;;;;2.22;0.80;;;16.60;94.40;;;;;;4897915;29;20052;-82
2023/08/02 05:07:33;;;;;;;2.20;0.77;;;16.60;94.70;;;;;;4910952;29;20135;-83
2023/08/02 05:10:03;;;;;;;2.72;0.70;;;16.60;94.30;;;;;;4896463;29;20044;-82
2023/08/02 05:12:34;;;;;;;2.75;1.05;;;16.60;94.30;;;;;;4906438;29;20052;-82
2023/08/02 05:15:02;;;;;;;2.95;0.70;;;16.70;94.40;;;;;;4885023;29;20417;-82
2023/08/02 05:17:29;;;;;;;3.08;0.80;;;16.60;94.30;;;;;;4909107;29;20383;-82
2023/08/02 05:19:57;;;;;;;1.50;0.65;;;16.70;94.40;;;;;;4912822;29;20051;-82
2023/08/02 05:22:24;;;;;;;3.58;0.85;;;16.60;94.40;;;;;;4888291;29;20461;-83
2023/08/02 05:24:52;;;;;;;2.72;0.80;;;16.70;94.40;;;;;;4867841;29;20082;-82
2023/08/02 05:27:19;;;;;;;2.40;0.73;;;16.70;94.40;;;;;;4901971;29;20048;-83
2023/08/02 05:29:46;;;;;;;2.45;0.77;;;16.70;94.40;;;;;;4855152;29;20568;-83
2023/08/02 05:32:13;;;;;;;1.88;0.65;;;16.80;94.30;;;;;;4879423;29;20062;-83
2023/08/02 05:34:41;;;;;;;2.67;0.70;;;16.80;94.30;;;;;;4876606;29;20048;-83
2023/08/02 05:37:08;;;;;;;3.33;0.90;;;16.80;94.30;;;;;;4865634;29;20581;-82
2023/08/02 05:39:35;;;;;;;3.05;0.85;;;16.90;94.30;;;;;;4856892;29;20394;-82
2023/08/02 05:42:02;;;;;;;3.70;0.80;;;16.90;94.30;;;;;;4875629;29;20088;-82
2023/08/02 05:44:29;;;;;;;2.45;0.90;;;16.90;94.30;;;;;;4871095;29;20043;-82
2023/08/02 05:46:57;;;;;;;3.70;1.10;;;16.90;94.30;;;;;;4906321;29;20401;-82
2023/08/02 05:49:24;;;;;;;1.77;0.80;;;16.90;94.30;;;;;;4919846;29;20044;-82
2023/08/02 05:51:51;;;;;;;2.30;1.10;;;17.00;94.30;;;;;;4895683;29;20076;-83
2023/08/02 05:54:38;;;;;;;1.65;0.65;;;17.00;94.30;;;;;;4620441;29;20122;-82
2023/08/02 05:57:07;;;;;;;1.77;0.60;;;17.00;94.30;;;;;;4897122;29;20475;-83
2023/08/02 05:59:37;;;;;;;1.70;0.60;;;17.00;94.30;;;;;;4895847;29;20399;-83
2023/08/02 06:02:07;;;;;;;4.88;1.13;;;16.90;94.30;;;;;;4878719;29;20048;-82
2023/08/02 06:04:36;;;;;;;3.00;0.70;;;16.90;94.30;;;;;;4909984;29;20048;-83
2023/08/02 06:07:04;;;;;;;2.15;0.68;;;16.90;94.40;;;;;;4888203;29;20055;-82
2023/08/02 06:09:31;;;;;;;4.20;0.82;;;16.90;94.50;;;;;;4871958;29;20083;-83
2023/08/02 06:12:02;;;;;;;3.30;1.00;;;16.80;94.50;;;;;;4870229;29;20482;-83
2023/08/02 06:14:29;;;;;;;3.13;0.80;;;16.80;94.50;;;;;;4881713;29;20059;-82
2023/08/02 06:16:56;;;;;;;1.98;0.70;;;16.80;94.60;;;;;;4877006;29;20399;-82
2023/08/02 06:19:23;;;;;;;4.45;0.95;;;16.70;94.60;;;;;;4903391;29;20488;-82
2023/08/02 06:21:50;;;;;;;3.13;1.08;;;16.70;94.70;;;;;;4895715;29;20052;-82
2023/08/02 06:24:17;;;;;;;3.92;1.20;;;16.70;94.70;;;;;;4882667;29;20071;-82
2023/08/02 06:26:44;;;;;;;3.20;1.00;;;16.60;94.80;;;;;;4896398;29;20056;-82
2023/08/02 06:29:12;;;;;;;3.40;0.95;;;16.60;94.80;;;;;;4867591;29;20055;-81
2023/08/02 06:31:40;;;;;;;2.03;0.80;;;16.60;94.90;;;;;;4883019;29;20056;-81
2023/08/02 06:34:45;;;;;;;2.05;0.80;;;16.50;95.00;;;;;;4896265;29;20052;-81
2023/08/02 06:37:12;;;;;;;2.63;1.00;;;16.50;95.00;;;;;;4913525;29;20063;-81
2023/08/02 06:39:41;;;;;;;2.47;0.82;;;16.40;95.10;;;;;;4912524;29;20493;-81
2023/08/02 06:42:08;;;;;;;4.03;0.68;;;16.40;95.10;;;;;;4898955;29;20064;-81
2023/08/02 06:44:35;;;;;;;2.80;1.00;;;16.40;95.20;;;;;;4879362;29;20056;-81
2023/08/02 06:47:02;;;;;;;2.28;0.75;;;16.40;95.30;;;;;;4882186;29;20451;-81
2023/08/02 06:49:34;;;;;;;1.77;0.98;;;16.40;95.30;;;;;;4914012;29;20048;-81
2023/08/02 06:52:01;;;;;;;2.42;0.73;;;16.40;95.30;;;;;;4916731;29;20063;-81
2023/08/02 06:54:28;;;;;;;2.13;0.70;;;16.40;95.40;;;;;;4866228;29;20048;-82
2023/08/02 06:56:55;;;;;;;2.00;0.80;;;16.40;95.40;;;;;;4894759;29;20044;-81
2023/08/02 06:59:23;;;;;;;2.55;1.00;;;16.40;95.40;;;;;;4885798;29;20055;-81
2023/08/02 07:01:52;;;;;;;1.60;0.88;;;16.40;95.50;;;;;;4873707;29;20059;-82
2023/08/02 07:04:19;;;;;;;2.45;0.75;;;16.40;95.50;;;;;;4899476;29;20058;-81
2023/08/02 07:06:46;;;;;;;3.85;1.20;;;16.40;95.50;;;;;;4913607;29;20048;-82
2023/08/02 07:09:14;;;;;;;2.22;0.98;;;16.40;95.50;;;;;;4895170;29;20048;-82
2023/08/02 07:11:41;;;;;;;2.38;0.70;;;16.50;95.60;;;;;;4899340;29;20036;-82
2023/08/02 07:14:08;;;;;;;2.80;0.70;;;16.50;95.60;;;;;;4902184;29;20064;-82
2023/08/02 07:16:35;;;;;;;2.63;0.93;;;16.50;95.60;;;;;;4894083;29;20100;-81
2023/08/02 07:19:02;;;;;;;1.98;0.73;;;16.50;95.60;;;;;;4888213;29;20036;-81
2023/08/02 07:21:30;;;;;;;3.47;0.95;;;16.50;95.60;;;;;;4865769;29;20440;-81
2023/08/02 07:23:58;;;;;;;2.05;0.75;;;16.50;95.70;;;;;;4878951;29;20063;-81
2023/08/02 07:26:25;;;;;;;2.75;0.90;;;16.50;95.70;;;;;;4883674;29;20082;-82
2023/08/02 07:28:52;;;;;;;2.63;0.90;;;16.50;95.80;;;;;;4862508;29;20052;-82
2023/08/02 07:31:19;;;;;;;2.47;0.90;;;16.50;95.80;;;;;;4884968;29;20041;-82
2023/08/02 07:33:47;;;;;;;1.83;0.70;;;16.50;95.90;;;;;;4864573;29;20072;-82
2023/08/02 07:36:18;;;;;;;2.00;0.80;;;16.50;95.90;;;;;;4869016;29;20516;-82
2023/08/02 07:38:46;;;;;;;3.15;1.02;;;16.60;95.90;;;;;;4875804;29;20036;-81
2023/08/02 07:41:13;;;;;;;2.38;1.10;;;16.70;95.80;;;;;;4895640;29;20420;-81
2023/08/02 07:43:41;;;;;;;2.25;0.90;;;16.70;95.80;;;;;;4911679;29;20048;-82
2023/08/02 07:46:16;;;;;;;1.75;0.60;;;16.80;95.80;;;;;;4899341;29;20051;-81
2023/08/02 07:48:45;;;;;;;1.63;0.65;;;16.80;95.80;;;;;;4869949;29;20045;-83
2023/08/02 07:51:12;;;;;;;0.95;0.63;;;16.80;95.80;;;;;;4888696;29;20115;-82
2023/08/02 07:53:39;;;;;;;1.67;0.60;;;16.80;95.80;;;;;;4867668;29;20045;-81
2023/08/02 07:56:07;;;;;;;1.60;0.55;;;16.80;95.90;;;;;;4861770;29;20445;-84
2023/08/02 07:58:34;;;;;;;1.30;0.50;;;16.80;95.90;;;;;;4889089;29;21046;-85
2023/08/02 08:01:08;;;;;;;2.55;0.60;;;16.80;95.90;;;;;;4880652;29;20060;-84
2023/08/02 08:03:35;;;;;;;1.98;0.70;;;16.90;96.00;;;;;;4886021;29;20461;-85
2023/08/02 08:06:11;;;;;;;2.17;0.68;;;16.90;95.90;;;;;;4884958;29;20167;-85
2023/08/02 08:08:39;;;;;;;1.52;0.60;;;16.90;96.00;;;;;;4902057;29;20107;-84
2023/08/02 08:11:06;;;;;;;1.95;0.60;;;16.90;96.00;;;;;;4880633;29;20048;-84
2023/08/02 08:13:33;;;;;;;1.70;0.60;;;16.90;96.00;;;;;;4890901;29;20053;-85
2023/08/02 08:16:01;;;;;;;1.30;0.57;;;16.90;96.10;;;;;;4873207;29;20048;-84
2023/08/02 08:18:33;;;;;;;1.60;0.70;;;17.00;96.10;;;;;;4876500;29;20048;-84
2023/08/02 08:21:03;;;;;;;1.35;0.55;;;17.00;96.00;;;;;;4862712;29;20041;-84
2023/08/02 08:23:31;;;;;;;2.47;0.90;;;17.00;96.20;;;;;;4855625;29;20075;-85
2023/08/02 08:25:58;;;;;;;1.45;0.55;;;17.00;96.00;;;;;;4886757;29;20365;-83
2023/08/02 08:28:25;;;;;;;1.15;0.45;;;17.10;96.00;;;;;;4891948;29;20044;-83
2023/08/02 08:31:03;;;;;;;1.02;0.60;;;17.10;96.10;;;;;;4907795;29;20050;-84
2023/08/02 08:33:31;;;;;;;1.40;0.47;;;17.10;96.10;;;;;;4881498;29;21377;-85
2023/08/02 08:36:00;;;;;;;0.88;0.30;;;17.10;96.20;;;;;;4888233;29;20481;-84
2023/08/02 08:38:27;;;;;;;1.10;0.43;;;17.00;96.20;;;;;;4890727;29;20515;-83
2023/08/02 08:40:56;;;;;;;1.02;0.45;;;17.10;96.20;;;;;;4874607;29;20093;-83
2023/08/02 08:43:27;;;;;;;0.88;0.30;;;17.20;96.20;;;;;;4871891;29;20046;-84
2023/08/02 08:45:56;;;;;;;0.77;0.35;;;17.30;96.10;;;;;;4894222;29;20048;-84
2023/08/02 08:48:25;;;;;;;0.98;0.45;;;17.30;96.10;;;;;;4878833;29;20048;-84
2023/08/02 08:50:55;;;;;;;1.05;0.32;;;17.40;96.10;;;;;;4893583;29;20453;-84
2023/08/02 08:53:32;;;;;;;2.17;0.40;;;17.40;96.10;;;;;;4893736;29;20048;-85
2023/08/02 08:56:01;;;;;;;1.23;0.43;;;17.40;96.10;;;;;;4878439;29;20045;-84
2023/08/02 08:58:29;;;;;;;1.27;0.32;;;17.40;96.20;;;;;;4867762;29;20149;-84
2023/08/02 09:00:58;;;;;;;0.68;0.30;;;17.40;96.20;;;;;;4897177;29;20645;-84
2023/08/02 09:03:25;;;;;;;0.80;0.30;;;17.40;96.20;;;;;;4881265;29;20482;-84
2023/08/02 09:05:53;;;;;;;1.52;0.30;;;17.40;96.30;;;;;;4853842;29;20075;-84
2023/08/02 09:08:20;;;;;;;0.70;0.30;;;17.40;96.30;;;;;;4891457;29;20044;-83
2023/08/02 09:10:47;;;;;;;0.40;0.28;;;17.50;96.30;;;;;;4813160;29;20048;-84
2023/08/02 09:13:27;;;;;;;1.30;0.30;;;17.50;96.40;;;;;;4858558;29;20091;-84
2023/08/02 09:16:12;;;;;;;1.25;0.30;;;17.40;96.40;;;;;;4891963;29;20146;-84
2023/08/02 09:18:45;;;;;;;0.30;0.20;;;17.40;96.50;;;;;;4849426;29;20051;-84
2023/08/02 09:21:15;;;;;;;1.50;0.28;;;17.30;96.60;;;;;;4879574;29;20142;-84
2023/08/02 09:23:47;;;;;;;0.40;0.20;;;17.40;96.70;;;;;;4868488;29;20183;-85
2023/08/02 09:26:17;;;;;;;0.35;0.20;;;17.40;96.70;;;;;;4860968;29;20102;-84
2023/08/02 09:28:58;;;;;;;0.47;0.30;;;17.50;96.90;;;;;;4868393;29;20040;-83
2023/08/02 09:31:26;;;;;;;0.30;0.10;;;17.70;96.60;;;;;;4883995;29;20048;-83
2023/08/02 09:33:54;;;;;;;0.40;0.10;;;17.70;96.50;;;;;;4889440;29;20083;-84
2023/08/02 09:36:28;;;;;;;0.30;0.17;;;17.70;96.50;;;;;;4894969;29;20055;-84
2023/08/02 09:38:57;;;;;;;0.30;0.10;;;17.80;96.50;;;;;;4881772;29;20048;-84
2023/08/02 09:41:25;;;;;;;0.30;0.10;;;17.90;96.60;;;;;;4888620;29;20378;-85
2023/08/02 09:43:56;;;;;;;0.30;0.15;;;18.00;96.50;;;;;;4893106;29;20106;-83
2023/08/02 09:46:33;;;;;;;0.20;0.10;;;18.20;96.40;;;;;;4897125;29;20055;-84
2023/08/02 09:49:15;;;;;;;1.20;0.10;;;18.40;96.40;;;;;;4899950;29;20544;-84
2023/08/02 09:51:44;;;;;;;0.20;0.10;;;18.60;96.10;;;;;;4874130;29;20059;-84
2023/08/02 09:54:14;;;;;;;0.73;0.20;;;18.80;95.90;;;;;;4873227;29;20048;-84
2023/08/02 09:56:42;;;;;;;0.40;0.20;;;18.80;95.90;;;;;;4898157;29;20082;-84
2023/08/02 09:59:09;;;;;;;0.57;0.22;;;18.90;96.00;;;;;;4867915;29;20084;-84
2023/08/02 10:01:40;;;;;;;0.70;0.22;;;18.90;96.00;;;;;;4874402;29;20146;-83
2023/08/02 10:04:10;;;;;;;0.60;0.30;;;19.00;96.10;;;;;;4902957;29;20059;-82
2023/08/02 10:06:38;;;;;;;0.47;0.28;;;19.30;96.10;;;;;;4765579;29;20793;-87
2023/08/02 10:09:08;;;;;;;0.77;0.30;;;19.50;95.90;;;;;;4762181;29;20104;-87
2023/08/02 10:11:44;;;;;;;0.77;0.40;;;19.70;95.70;;;;;;4873507;29;20040;-86
2023/08/02 10:14:18;;;;;;;0.80;0.35;;;19.80;95.90;;;;;;4892298;29;20044;-92
2023/08/02 10:20:29;;;;;;;;;;;19.90;95.60;;;;;;4912598;29;20056;-85
2023/08/02 10:23:18;;;;;;;0.80;0.40;;;19.90;95.60;;;;;;4898680;29;20419;-96
2023/08/02 10:26:15;;;;;;;1.13;0.60;;;20.00;95.60;;;;;;4877244;29;20147;-90
2023/08/02 10:28:43;;;;;;;0.68;0.40;;;19.90;95.70;;;;;;4892022;29;20068;-90
2023/08/02 10:31:11;;;;;;;2.63;0.70;;;19.90;95.80;;;;;;4901586;29;20052;-84
2023/08/02 10:33:42;;;;;;;1.00;0.60;;;20.00;95.80;;;;;;4913662;29;20036;-87
2023/08/02 10:36:23;;;;;;;1.33;0.80;;;20.20;95.80;;;;;;4898657;29;20076;-92
2023/08/02 10:38:58;;;;;;;;;;;20.50;95.60;;;;;;4874650;29;20049;-93
2023/08/02 10:41:55;;;;;;;0.70;0.40;;;20.80;95.30;;;;;;4898069;29;19930;-88
2023/08/02 10:44:56;;;;;;;0.75;0.43;;;21.00;95.00;;;;;;4894921;29;20044;-93
2023/08/02 10:47:35;;;;;;;1.00;0.55;;;21.30;94.80;;;;;;4897787;29;20046;-92
2023/08/02 10:50:45;;;;;;;0.90;0.60;;;21.40;94.60;;;;;;4900029;29;20100;-91
2023/08/02 10:53:18;;;;;;;0.60;0.40;;;21.60;94.60;;;;;;4904985;29;20049;-89
2023/08/02 10:56:16;;;;;;;0.85;0.40;;;21.70;94.50;;;;;;4896098;29;20104;-90
2023/08/02 10:58:48;;;;;;;1.48;0.93;;;21.90;94.40;;;;;;4882762;29;20099;-92
2023/08/02 11:01:15;;;;;;;1.55;0.50;;;21.80;94.40;;;;;;4894160;29;20094;-83
2023/08/02 11:03:54;;;;;;;1.27;0.85;;;21.80;94.50;;;;;;4899380;29;20139;-91
2023/08/02 11:06:29;;;;;;;0.55;0.40;;;21.80;94.50;;;;;;4901610;29;20068;-88
2023/08/02 11:09:02;;;;;;;0.88;0.50;;;22.00;94.50;;;;;;4906744;29;20052;-92
2023/08/02 11:11:32;;;;;;;1.10;0.43;;;22.10;94.30;;;;;;4895801;29;20405;-91
2023/08/02 11:18:33;;;;;;;0.57;0.30;;;22.60;93.90;;;;;;4914393;29;20031;-91
2023/08/02 11:21:11;;;;;;;0.80;0.40;;;22.50;93.80;;;;;;4885605;29;20159;-92
2023/08/02 11:23:39;;;;;;;0.68;0.47;;;22.30;94.00;;;;;;4896355;29;20096;-93
2023/08/02 11:26:42;;;;;;;0.30;0.28;;;22.00;94.40;;;;;;4904794;29;20485;-95
2023/08/02 11:29:21;;;;;;;1.00;0.40;;;21.80;94.60;;;;;;4918638;29;20056;-92
2023/08/02 11:31:53;;;;;;;0.85;0.40;;;21.50;94.70;;;;;;4907738;29;21508;-82
2023/08/02 11:34:27;;;;;;;1.03;0.50;;;21.30;94.90;;;;;;4894241;29;20040;-91
2023/08/02 11:36:57;;;;;;;0.60;0.40;;;21.20;95.20;;;;;;4913330;29;21316;-91
2023/08/02 11:39:34;;;;;;;0.68;0.30;;;21.00;95.30;;;;;;4895544;29;20083;-92
2023/08/02 11:42:14;;;;;;;0.40;0.30;;;20.80;95.40;;;;;;4879754;29;20143;-90
2023/08/02 11:44:44;;;;;;;0.98;0.50;;;20.70;95.60;;;;;;4911847;29;20505;-89
2023/08/02 11:47:36;;;;;;;0.40;0.30;;;20.50;95.80;;;;;;4899511;29;20044;-92
2023/08/02 11:50:10;;;;;;;0.63;0.30;;;20.40;95.90;;;;;;4887101;29;20139;-94
2023/08/02 11:52:40;;;;;;;0.75;0.30;;;20.40;96.00;;;;;;4901883;29;20061;-85
2023/08/02 11:59:13;;;;;;;0.60;0.40;;;20.30;96.10;;;;;;4913969;29;20032;-88
2023/08/02 12:01:43;;;;;;;1.50;0.40;;;20.30;96.10;;;;;;4902443;29;20134;-87
2023/08/02 12:04:10;;;;;;;0.70;0.30;;;20.30;96.20;;;;;;4878423;29;20131;-87
2023/08/02 12:06:49;;;;;;;1.38;0.50;;;20.30;96.20;;;;;;4912287;29;20085;-86
2023/08/02 12:09:18;;;;;;;0.88;0.50;;;20.50;96.10;;;;;;4897741;29;20074;-84
2023/08/02 12:11:53;;;;;;;0.80;0.50;;;20.90;96.00;;;;;;4909193;29;20047;-87
2023/08/02 12:14:28;;;;;;;0.88;0.50;;;21.70;95.20;;;;;;4900937;29;20041;-80
2023/08/02 12:16:56;;;;;;;0.63;0.30;;;22.20;94.40;;;;;;4872155;29;20044;-91
2023/08/02 12:19:43;;;;;;;1.10;0.32;;;22.00;94.30;;;;;;4914607;29;20048;-90
2023/08/02 12:22:15;;;;;;;1.10;0.50;;;21.90;94.60;;;;;;4882167;29;20052;-87
2023/08/02 12:24:43;;;;;;;0.60;0.30;;;21.70;94.80;;;;;;4888022;29;20901;-82
2023/08/02 12:27:17;;;;;;;0.95;0.43;;;21.60;95.00;;;;;;4909789;29;20044;-87
2023/08/02 12:29:47;;;;;;;0.80;0.38;;;21.50;95.10;;;;;;4893459;29;20044;-81
2023/08/02 12:32:27;;;;;;;0.40;0.30;;;21.40;95.20;;;;;;4908258;29;20063;-82
2023/08/02 12:34:55;;;;;;;0.95;0.43;;;21.40;95.20;;;;;;4890409;29;20036;-82
2023/08/02 12:37:38;;;;;;;1.52;0.28;;;21.40;95.00;;;;;;4880223;29;20159;-83
2023/08/02 12:40:05;;;;;;;1.23;0.40;;;22.10;94.70;;;;;;4894987;29;20146;-82
2023/08/02 12:42:34;;;;;;;0.73;0.30;;;22.90;93.60;;;;;;4848703;29;20965;-81
2023/08/02 12:45:11;;;;;;;2.38;0.40;;;23.60;93.00;;;;;;4880544;29;20804;-82
2023/08/02 12:47:44;;;;;;;2.00;0.32;;;24.50;92.10;;;;;;4892181;29;20130;-82
2023/08/02 12:50:11;;;;;;;1.08;0.32;;;24.40;91.40;;;;;;4898887;29;20122;-82
2023/08/02 12:52:38;;;;;;;1.50;0.40;;;24.70;91.40;;;;;;4734896;29;20052;-82
2023/08/02 12:55:05;;;;;;;1.13;0.40;;;25.10;91.00;;;;;;4866820;29;20064;-82
2023/08/02 12:57:33;;;;;;;0.68;0.30;;;25.60;90.30;;;;;;4880312;29;20056;-82
2023/08/02 13:00:00;;;;;;;2.22;0.30;;;26.10;89.60;;;;;;4895047;29;20091;-83
2023/08/02 13:02:27;;;;;;;0.43;0.20;;;26.50;88.40;;;;;;4889819;29;20376;-82
2023/08/02 13:04:54;;;;;;;1.10;0.40;;;26.30;88.10;;;;;;4892500;29;20423;-82
2023/08/02 13:07:21;;;;;;;2.47;0.40;;;26.00;88.40;;;;;;4896558;29;20040;-83
2023/08/02 13:09:57;;;;;;;3.95;0.50;;;25.50;87.90;;;;;;4888372;29;20044;-82
2023/08/02 13:12:25;;;;;;;3.10;0.73;;;24.90;87.70;;;;;;4859202;29;20052;-83
2023/08/02 13:15:04;;;;;;;4.28;0.80;;;24.50;88.70;;;;;;4871295;29;20067;-82
2023/08/02 13:17:34;;;;;;;2.55;0.45;;;24.90;86.10;;;;;;4905051;29;20135;-82